createdAt,value
2019-02-15T00:00:29.392Z,2.18
2019-02-15T00:01:29.389Z,2.27
2019-02-15T00:02:29.395Z,2.16
2019-02-15T00:03:29.362Z,2.12
2019-02-15T00:04:29.350Z,2.23
2019-02-15T00:05:29.334Z,2.23
2019-02-15T00:06:29.328Z,2.16
2019-02-15T00:07:29.338Z,2.16
2019-02-15T00:08:29.318Z,2.10
2019-02-15T00:09:29.291Z,2.10
2019-02-15T00:10:29.280Z,2.03
2019-02-15T00:11:29.286Z,2.07
2019-02-15T00:12:29.279Z,2.12
2019-02-15T00:13:29.255Z,2.05
2019-02-15T00:14:29.238Z,2.07
2019-02-15T00:15:29.245Z,2.07
2019-02-15T00:16:29.215Z,2.05
2019-02-15T00:17:29.218Z,2.10
2019-02-15T00:18:30.234Z,2.06
2019-02-15T00:19:29.189Z,2.10
2019-02-15T00:20:29.171Z,2.05
2019-02-15T00:21:29.172Z,2.07
2019-02-15T00:22:29.157Z,2.10
2019-02-15T00:23:29.154Z,2.06
2019-02-15T00:24:29.133Z,1.91
2019-02-15T00:25:29.134Z,1.84
2019-02-15T00:26:29.112Z,1.70
2019-02-15T00:27:29.104Z,1.83
2019-02-15T00:28:29.095Z,1.79
2019-02-15T00:29:29.085Z,1.72
2019-02-15T00:30:29.080Z,1.69
2019-02-15T00:31:29.059Z,1.72
2019-02-15T00:32:29.044Z,1.76
2019-02-15T00:33:29.034Z,1.76
2019-02-15T00:34:29.025Z,1.70
2019-02-15T00:35:29.018Z,1.73
2019-02-15T00:36:29.013Z,1.72
2019-02-15T00:37:29.004Z,1.70
2019-02-15T00:38:29.013Z,1.69
2019-02-15T00:39:28.971Z,1.72
2019-02-15T00:40:28.965Z,1.73
2019-02-15T00:41:28.957Z,1.65
2019-02-15T00:42:28.956Z,1.62
2019-02-15T00:43:28.937Z,1.60
2019-02-15T00:44:28.917Z,1.59
2019-02-15T00:45:28.912Z,1.68
2019-02-15T00:46:28.904Z,1.69
2019-02-15T00:47:28.877Z,1.69
2019-02-15T00:48:28.881Z,1.62
2019-02-15T00:49:28.859Z,1.60
2019-02-15T00:50:28.857Z,1.62
2019-02-15T00:51:28.852Z,1.62
2019-02-15T00:52:28.843Z,1.62
2019-02-15T00:53:28.835Z,1.65
2019-02-15T00:54:28.809Z,1.62
2019-02-15T00:55:28.804Z,1.52
2019-02-15T00:56:28.789Z,1.51
2019-02-15T00:57:28.793Z,1.48
2019-02-15T00:58:28.763Z,1.54
2019-02-15T00:59:28.753Z,1.42
2019-02-15T01:00:28.749Z,1.40
2019-02-15T01:01:28.755Z,1.44
2019-02-15T01:02:28.732Z,1.44
2019-02-15T01:03:28.721Z,1.52
2019-02-15T01:04:28.741Z,1.50
2019-02-15T01:05:28.697Z,1.51
2019-02-15T01:06:28.681Z,1.41
2019-02-15T01:07:28.666Z,1.36
2019-02-15T01:08:28.665Z,1.34
2019-02-15T01:09:28.663Z,1.27
2019-02-15T01:10:28.641Z,1.37
2019-02-15T01:11:30.439Z,1.29
2019-02-15T01:12:28.632Z,1.24
2019-02-15T01:13:31.230Z,1.26
2019-02-15T01:14:28.636Z,1.16
2019-02-15T01:15:28.611Z,1.26
2019-02-15T01:16:28.595Z,1.27
2019-02-15T01:17:28.575Z,1.27
2019-02-15T01:18:28.562Z,1.29
2019-02-15T01:19:28.545Z,1.18
2019-02-15T01:20:28.535Z,1.18
2019-02-15T01:21:28.518Z,1.16
2019-02-15T01:22:28.508Z,1.26
2019-02-15T01:23:28.507Z,1.29
2019-02-15T01:24:28.496Z,1.24
2019-02-15T01:25:28.477Z,1.24
2019-02-15T01:26:28.461Z,1.29
2019-02-15T01:27:28.459Z,1.24
2019-02-15T01:28:28.441Z,1.22
2019-02-15T01:29:28.441Z,1.23
2019-02-15T01:30:28.418Z,1.18
2019-02-15T01:31:28.424Z,1.22
2019-02-15T01:32:28.397Z,1.22
2019-02-15T01:33:28.383Z,1.18
2019-02-15T01:34:28.382Z,1.18
2019-02-15T01:35:28.367Z,1.27
2019-02-15T01:36:28.371Z,1.16
2019-02-15T01:37:28.349Z,1.24
2019-02-15T01:38:28.335Z,1.22
2019-02-15T01:39:28.333Z,1.15
2019-02-15T01:40:28.307Z,1.26
2019-02-15T01:41:28.305Z,1.14
2019-02-15T01:42:28.310Z,1.20
2019-02-15T01:43:28.281Z,1.20
2019-02-15T01:44:28.270Z,1.12
2019-02-15T01:45:28.271Z,1.26
2019-02-15T01:46:28.255Z,1.16
2019-02-15T01:47:28.241Z,1.18
2019-02-15T01:48:28.232Z,1.08
2019-02-15T01:49:28.218Z,1.09
2019-02-15T01:50:28.209Z,1.00
2019-02-15T01:51:28.191Z,0.98
2019-02-15T01:52:28.188Z,1.04
2019-02-15T01:53:28.183Z,1.08
2019-02-15T01:54:28.160Z,1.00
2019-02-15T01:55:28.155Z,0.97
2019-02-15T01:56:28.167Z,1.06
2019-02-15T01:57:28.132Z,1.02
2019-02-15T01:58:28.157Z,1.06
2019-02-15T01:59:28.148Z,0.97
2019-02-15T02:00:28.097Z,0.97
2019-02-15T02:01:28.087Z,0.94
2019-02-15T02:02:28.073Z,0.91
2019-02-15T02:03:28.061Z,0.90
2019-02-15T02:04:28.054Z,0.96
2019-02-15T02:05:28.049Z,0.93
2019-02-15T02:06:28.027Z,0.91
2019-02-15T02:07:28.023Z,0.93
2019-02-15T02:08:28.011Z,0.98
2019-02-15T02:09:28.001Z,0.91
2019-02-15T02:10:27.995Z,0.91
2019-02-15T02:11:27.991Z,0.94
2019-02-15T02:12:27.970Z,0.91
2019-02-15T02:13:27.969Z,0.90
2019-02-15T02:14:27.942Z,0.83
2019-02-15T02:15:27.949Z,0.87
2019-02-15T02:16:27.932Z,0.83
2019-02-15T02:17:27.907Z,0.91
2019-02-15T02:18:27.905Z,0.90
2019-02-15T02:19:27.897Z,0.87
2019-02-15T02:20:27.881Z,0.84
2019-02-15T02:21:27.870Z,0.73
2019-02-15T02:22:27.881Z,0.69
2019-02-15T02:23:27.847Z,0.73
2019-02-15T02:24:27.837Z,0.70
2019-02-15T02:25:27.833Z,0.68
2019-02-15T02:26:27.816Z,0.62
2019-02-15T02:27:27.815Z,0.62
2019-02-15T02:28:27.801Z,0.62
2019-02-15T02:29:27.784Z,0.57
2019-02-15T02:30:27.780Z,0.55
2019-02-15T02:31:27.768Z,0.55
2019-02-15T02:32:27.764Z,0.53
2019-02-15T02:33:27.752Z,0.51
2019-02-15T02:34:27.733Z,0.47
2019-02-15T02:35:27.726Z,0.51
2019-02-15T02:36:27.715Z,0.55
2019-02-15T02:37:27.713Z,0.57
2019-02-15T02:38:27.692Z,0.66
2019-02-15T02:39:27.694Z,0.62
2019-02-15T02:40:27.671Z,0.55
2019-02-15T02:41:27.657Z,0.61
2019-02-15T02:42:27.648Z,0.73
2019-02-15T02:43:27.648Z,0.75
2019-02-15T02:44:27.631Z,0.84
2019-02-15T02:45:27.627Z,0.78
2019-02-15T02:46:27.610Z,0.83
2019-02-15T02:47:27.597Z,0.78
2019-02-15T02:48:27.584Z,0.80
2019-02-15T02:49:27.591Z,0.76
2019-02-15T02:50:27.572Z,0.88
2019-02-15T02:51:27.561Z,0.80
2019-02-15T02:52:27.546Z,0.84
2019-02-15T02:53:27.541Z,0.72
2019-02-15T02:54:27.529Z,0.78
2019-02-15T02:55:27.510Z,0.79
2019-02-15T02:56:27.512Z,0.83
2019-02-15T02:57:27.492Z,0.79
2019-02-15T02:58:27.478Z,0.83
2019-02-15T02:59:27.471Z,0.80
2019-02-15T03:00:33.528Z,0.83
2019-02-15T03:01:28.450Z,0.75
2019-02-15T03:02:27.549Z,0.80
2019-02-15T03:03:27.425Z,0.76
2019-02-15T03:04:27.421Z,0.76
2019-02-15T03:05:27.410Z,0.72
2019-02-15T03:06:27.406Z,0.73
2019-02-15T03:07:27.394Z,0.70
2019-02-15T03:08:27.381Z,0.66
2019-02-15T03:09:27.376Z,0.72
2019-02-15T03:10:27.355Z,0.70
2019-02-15T03:11:27.348Z,0.73
2019-02-15T03:12:27.354Z,0.66
2019-02-15T03:13:27.329Z,0.69
2019-02-15T03:14:27.334Z,0.76
2019-02-15T03:15:27.303Z,0.62
2019-02-15T03:16:27.289Z,0.68
2019-02-15T03:17:27.276Z,0.72
2019-02-15T03:18:27.279Z,0.69
2019-02-15T03:19:27.270Z,0.61
2019-02-15T03:20:31.392Z,0.53
2019-02-15T03:21:27.241Z,0.55
2019-02-15T03:22:27.227Z,0.50
2019-02-15T03:23:27.221Z,0.58
2019-02-15T03:24:27.215Z,0.57
2019-02-15T03:25:27.196Z,0.53
2019-02-15T03:26:27.184Z,0.55
2019-02-15T03:27:27.180Z,0.57
2019-02-15T03:28:27.168Z,0.55
2019-02-15T03:29:27.164Z,0.51
2019-02-15T03:30:27.149Z,0.49
2019-02-15T03:31:27.143Z,0.44
2019-02-15T03:32:27.136Z,0.50
2019-02-15T03:33:27.130Z,0.46
2019-02-15T03:34:27.103Z,0.42
2019-02-15T03:35:27.165Z,0.42
2019-02-15T03:36:27.093Z,0.47
2019-02-15T03:37:27.097Z,0.51
2019-02-15T03:38:27.062Z,0.47
2019-02-15T03:39:27.072Z,0.50
2019-02-15T03:40:27.068Z,0.44
2019-02-15T03:41:27.029Z,0.57
2019-02-15T03:42:27.032Z,0.60
2019-02-15T03:43:27.021Z,0.58
2019-02-15T03:44:26.992Z,0.65
2019-02-15T03:45:26.984Z,0.62
2019-02-15T03:46:27.003Z,0.69
2019-02-15T03:47:26.967Z,0.62
2019-02-15T03:48:28.936Z,0.62
2019-02-15T03:49:26.943Z,0.73
2019-02-15T03:50:26.935Z,0.70
2019-02-15T03:51:26.932Z,0.76
2019-02-15T03:52:26.922Z,0.75
2019-02-15T03:53:26.902Z,0.76
2019-02-15T03:54:26.901Z,0.83
2019-02-15T03:55:26.884Z,0.83
2019-02-15T03:56:26.871Z,0.78
2019-02-15T03:57:26.861Z,0.86
2019-02-15T03:58:26.851Z,0.76
2019-02-15T03:59:26.847Z,0.87
2019-02-15T04:00:26.886Z,0.76
2019-02-15T04:01:26.816Z,0.87
2019-02-15T04:02:26.816Z,0.86
2019-02-15T04:03:26.796Z,0.76
2019-02-15T04:04:26.787Z,0.72
2019-02-15T04:05:26.788Z,0.76
2019-02-15T04:06:26.773Z,0.75
2019-02-15T04:07:26.753Z,0.65
2019-02-15T04:08:26.745Z,0.66
2019-02-15T04:09:26.732Z,0.58
2019-02-15T04:10:26.719Z,0.66
2019-02-15T04:11:26.720Z,0.62
2019-02-15T04:12:26.707Z,0.66
2019-02-15T04:13:26.692Z,0.68
2019-02-15T04:14:33.010Z,0.75
2019-02-15T04:15:27.684Z,0.68
2019-02-15T04:16:26.666Z,0.61
2019-02-15T04:17:26.673Z,0.55
2019-02-15T04:18:26.637Z,0.49
2019-02-15T04:19:26.629Z,0.61
2019-02-15T04:20:26.624Z,0.46
2019-02-15T04:21:26.617Z,0.50
2019-02-15T04:22:26.612Z,0.44
2019-02-15T04:23:26.599Z,0.46
2019-02-15T04:24:26.574Z,0.44
2019-02-15T04:25:26.561Z,0.44
2019-02-15T04:26:26.560Z,0.41
2019-02-15T04:27:26.550Z,0.42
2019-02-15T04:28:26.555Z,0.39
2019-02-15T04:29:26.522Z,0.46
2019-02-15T04:30:26.525Z,0.41
2019-02-15T04:31:26.503Z,0.42
2019-02-15T04:32:26.519Z,0.44
2019-02-15T04:33:26.490Z,0.46
2019-02-15T04:34:26.493Z,0.53
2019-02-15T04:35:26.458Z,0.47
2019-02-15T04:36:26.456Z,0.53
2019-02-15T04:37:26.439Z,0.50
2019-02-15T04:38:26.454Z,0.50
2019-02-15T04:39:26.429Z,0.53
2019-02-15T04:40:26.413Z,0.51
2019-02-15T04:41:26.399Z,0.55
2019-02-15T04:42:26.393Z,0.55
2019-02-15T04:43:26.371Z,0.57
2019-02-15T04:44:26.362Z,0.49
2019-02-15T04:45:26.365Z,0.51
2019-02-15T04:46:26.357Z,0.47
2019-02-15T04:47:26.356Z,0.55
2019-02-15T04:48:26.323Z,0.47
2019-02-15T04:49:26.315Z,0.46
2019-02-15T04:50:26.304Z,0.38
2019-02-15T04:51:26.298Z,0.28
2019-02-15T04:52:26.282Z,0.24
2019-02-15T04:53:26.278Z,0.29
2019-02-15T04:54:26.261Z,0.35
2019-02-15T04:55:26.253Z,0.29
2019-02-15T04:56:26.247Z,0.32
2019-02-15T04:57:26.252Z,0.23
2019-02-15T04:58:26.225Z,0.18
2019-02-15T04:59:26.225Z,0.26
2019-02-15T05:00:26.208Z,0.14
2019-02-15T05:01:26.193Z,0.17
2019-02-15T05:02:26.180Z,0.26
2019-02-15T05:03:26.165Z,0.23
2019-02-15T05:04:26.152Z,0.20
2019-02-15T05:05:26.146Z,0.24
2019-02-15T05:06:26.137Z,0.29
2019-02-15T05:07:26.123Z,0.24
2019-02-15T05:08:26.115Z,0.23
2019-02-15T05:09:26.113Z,0.23
2019-02-15T05:10:26.092Z,0.26
2019-02-15T05:11:26.078Z,0.26
2019-02-15T05:12:26.071Z,0.28
2019-02-15T05:13:26.061Z,0.28
2019-02-15T05:14:26.061Z,0.24
2019-02-15T05:15:26.040Z,0.24
2019-02-15T05:16:26.028Z,0.24
2019-02-15T05:17:26.025Z,0.23
2019-02-15T05:18:26.015Z,0.14
2019-02-15T05:19:26.007Z,0.20
2019-02-15T05:20:26.008Z,0.11
2019-02-15T05:21:25.973Z,0.14
2019-02-15T05:22:25.971Z,0.17
2019-02-15T05:23:25.961Z,0.11
2019-02-15T05:24:25.962Z,0.17
2019-02-15T05:25:25.937Z,0.17
2019-02-15T05:26:25.924Z,0.15
2019-02-15T05:27:25.916Z,0.15
2019-02-15T05:28:25.905Z,0.20
2019-02-15T05:29:25.905Z,0.11
2019-02-15T05:30:25.923Z,0.11
2019-02-15T05:31:25.879Z,0.17
2019-02-15T05:32:27.437Z,0.23
2019-02-15T05:33:25.866Z,0.26
2019-02-15T05:34:25.845Z,0.26
2019-02-15T05:35:25.836Z,0.23
2019-02-15T05:36:25.819Z,0.21
2019-02-15T05:37:25.812Z,0.15
2019-02-15T05:38:25.799Z,0.13
2019-02-15T05:39:25.792Z,0.17
2019-02-15T05:40:25.784Z,0.02
2019-02-15T05:41:25.798Z,0.07
2019-02-15T05:42:25.759Z,0.08
2019-02-15T05:43:25.769Z,0.00
2019-02-15T05:44:25.780Z,0.03
2019-02-15T05:45:25.731Z,0.04
2019-02-15T05:46:25.713Z,-0.03
2019-02-15T05:47:25.710Z,-0.03
2019-02-15T05:48:25.700Z,-0.01
2019-02-15T05:49:25.685Z,0.02
2019-02-15T05:50:25.676Z,-0.04
2019-02-15T05:51:25.665Z,0.02
2019-02-15T05:52:25.659Z,0.02
2019-02-15T05:53:25.644Z,0.07
2019-02-15T05:54:25.631Z,0.07
2019-02-15T05:55:25.629Z,0.17
2019-02-15T05:56:25.618Z,0.20
2019-02-15T05:57:25.603Z,0.26
2019-02-15T05:58:25.592Z,0.18
2019-02-15T05:59:25.598Z,0.20
2019-02-15T06:00:25.564Z,0.26
2019-02-15T06:01:25.552Z,0.21
2019-02-15T06:02:25.539Z,0.15
2019-02-15T06:03:25.536Z,0.24
2019-02-15T06:04:25.543Z,0.28
2019-02-15T06:05:25.517Z,0.15
2019-02-15T06:06:25.531Z,0.14
2019-02-15T06:07:25.499Z,0.23
2019-02-15T06:08:25.487Z,0.14
2019-02-15T06:09:25.491Z,0.14
2019-02-15T06:10:25.472Z,0.10
2019-02-15T06:11:25.456Z,0.02
2019-02-15T06:12:25.471Z,0.14
2019-02-15T06:13:25.442Z,0.15
2019-02-15T06:14:25.433Z,0.14
2019-02-15T06:15:25.414Z,0.11
2019-02-15T06:16:25.399Z,0.13
2019-02-15T06:17:25.396Z,0.23
2019-02-15T06:18:25.383Z,0.15
2019-02-15T06:19:25.367Z,0.21
2019-02-15T06:20:25.389Z,0.11
2019-02-15T06:21:25.343Z,0.15
2019-02-15T06:22:25.348Z,0.17
2019-02-15T06:23:25.339Z,0.15
2019-02-15T06:24:25.346Z,0.21
2019-02-15T06:25:25.315Z,0.21
2019-02-15T06:26:25.299Z,0.29
2019-02-15T06:27:25.290Z,0.28
2019-02-15T06:28:25.273Z,0.31
2019-02-15T06:29:25.297Z,0.26
2019-02-15T06:30:25.250Z,0.29
2019-02-15T06:31:25.248Z,0.24
2019-02-15T06:32:25.231Z,0.21
2019-02-15T06:33:25.233Z,0.29
2019-02-15T06:34:25.214Z,0.32
2019-02-15T06:35:25.206Z,0.23
2019-02-15T06:36:25.193Z,0.26
2019-02-15T06:37:25.180Z,0.24
2019-02-15T06:38:34.270Z,0.31
2019-02-15T06:39:26.161Z,0.29
2019-02-15T06:40:25.154Z,0.31
2019-02-15T06:41:25.149Z,0.26
2019-02-15T06:42:25.159Z,0.31
2019-02-15T06:43:25.123Z,0.33
2019-02-15T06:44:25.120Z,0.38
2019-02-15T06:45:25.606Z,0.33
2019-02-15T06:46:25.083Z,0.32
2019-02-15T06:47:25.073Z,0.32
2019-02-15T06:48:25.057Z,0.33
2019-02-15T06:49:25.052Z,0.36
2019-02-15T06:50:25.048Z,0.42
2019-02-15T06:51:25.033Z,0.38
2019-02-15T06:52:25.041Z,0.29
2019-02-15T06:53:25.015Z,0.20
2019-02-15T06:54:24.999Z,0.18
2019-02-15T06:55:24.985Z,0.15
2019-02-15T06:56:24.987Z,0.10
2019-02-15T06:57:24.973Z,0.15
2019-02-15T06:58:24.968Z,0.11
2019-02-15T06:59:24.951Z,0.04
2019-02-15T07:00:24.946Z,0.18
2019-02-15T07:01:24.935Z,0.11
2019-02-15T07:02:24.917Z,0.17
2019-02-15T07:03:24.973Z,0.26
2019-02-15T07:04:24.902Z,0.28
2019-02-15T07:05:24.899Z,0.33
2019-02-15T07:06:24.875Z,0.44
2019-02-15T07:07:24.867Z,0.39
2019-02-15T07:08:24.852Z,0.49
2019-02-15T07:09:24.849Z,0.46
2019-02-15T07:10:24.841Z,0.41
2019-02-15T07:11:24.821Z,0.49
2019-02-15T07:12:24.809Z,0.57
2019-02-15T07:13:24.809Z,0.47
2019-02-15T07:14:24.789Z,0.44
2019-02-15T07:15:33.185Z,0.55
2019-02-15T07:16:25.782Z,0.60
2019-02-15T07:17:24.764Z,0.65
2019-02-15T07:18:24.750Z,0.79
2019-02-15T07:19:24.749Z,0.83
2019-02-15T07:20:24.731Z,0.90
2019-02-15T07:21:24.731Z,1.24
2019-02-15T07:22:24.707Z,1.79
2019-02-15T07:23:24.695Z,2.79
2019-02-15T07:24:24.700Z,3.76
2019-02-15T07:25:24.690Z,4.73
2019-02-15T07:26:24.679Z,5.63
2019-02-15T07:27:24.666Z,6.09
2019-02-15T07:28:24.667Z,6.74
2019-02-15T07:29:24.634Z,7.30
2019-02-15T07:30:24.621Z,7.60
2019-02-15T07:31:24.619Z,8.11
2019-02-15T07:32:24.601Z,8.23
2019-02-15T07:33:24.594Z,8.41
2019-02-15T07:34:24.578Z,8.70
2019-02-15T07:35:24.569Z,8.77
2019-02-15T07:36:24.559Z,8.91
2019-02-15T07:37:24.549Z,8.71
2019-02-15T07:38:24.537Z,8.71
2019-02-15T07:39:24.526Z,8.79
2019-02-15T07:40:24.513Z,8.73
2019-02-15T07:41:24.523Z,8.56
2019-02-15T07:42:24.496Z,8.16
2019-02-15T07:43:24.501Z,7.82
2019-02-15T07:44:24.482Z,7.79
2019-02-15T07:45:24.470Z,7.97
2019-02-15T07:46:24.449Z,8.47
2019-02-15T07:47:24.435Z,8.96
2019-02-15T07:48:24.430Z,9.51
2019-02-15T07:49:26.934Z,9.89
2019-02-15T07:50:24.399Z,10.08
2019-02-15T07:51:24.423Z,10.60
2019-02-15T07:52:24.383Z,11.00
2019-02-15T07:53:24.378Z,11.25
2019-02-15T07:54:24.376Z,11.99
2019-02-15T07:55:24.379Z,12.21
2019-02-15T07:56:24.341Z,12.24
2019-02-15T07:57:24.322Z,12.38
2019-02-15T07:58:24.317Z,12.67
2019-02-15T07:59:24.301Z,13.38
2019-02-15T08:00:24.303Z,13.69
2019-02-15T08:01:24.284Z,13.97
2019-02-15T08:02:24.271Z,14.40
2019-02-15T08:03:24.264Z,14.70
2019-02-15T08:04:24.286Z,15.20
2019-02-15T08:05:24.252Z,15.57
2019-02-15T08:06:24.242Z,15.86
2019-02-15T08:07:24.216Z,16.14
2019-02-15T08:08:24.201Z,16.67
2019-02-15T08:09:24.203Z,16.93
2019-02-15T08:10:24.181Z,16.83
2019-02-15T08:11:24.193Z,17.15
2019-02-15T08:12:24.177Z,17.49
2019-02-15T08:13:24.145Z,17.87
2019-02-15T08:14:24.133Z,17.97
2019-02-15T08:15:24.151Z,18.05
2019-02-15T08:16:24.127Z,18.37
2019-02-15T08:17:24.130Z,18.36
2019-02-15T08:18:24.119Z,18.51
2019-02-15T08:19:24.095Z,18.55
2019-02-15T08:20:24.079Z,18.66
2019-02-15T08:21:24.080Z,18.87
2019-02-15T08:22:24.061Z,18.91
2019-02-15T08:23:24.100Z,18.99
2019-02-15T08:24:24.026Z,19.48
2019-02-15T08:25:24.021Z,19.50
2019-02-15T08:26:24.020Z,19.69
2019-02-15T08:27:24.022Z,19.81
2019-02-15T08:28:23.989Z,20.23
2019-02-15T08:29:23.993Z,20.38
2019-02-15T08:30:23.966Z,20.66
2019-02-15T08:31:23.951Z,20.94
2019-02-15T08:32:23.950Z,20.82
2019-02-15T08:33:23.953Z,21.31
2019-02-15T08:34:23.928Z,21.46
2019-02-15T08:35:23.927Z,21.77
2019-02-15T08:36:23.905Z,21.91
2019-02-15T08:37:23.887Z,22.14
2019-02-15T08:38:23.885Z,22.36
2019-02-15T08:39:23.902Z,22.61
2019-02-15T08:40:23.881Z,22.43
2019-02-15T08:41:23.866Z,22.36
2019-02-15T08:42:23.835Z,22.51
2019-02-15T08:43:23.829Z,22.67
2019-02-15T08:44:23.821Z,22.75
2019-02-15T08:45:23.834Z,23.00
2019-02-15T08:46:23.812Z,23.19
2019-02-15T08:47:23.794Z,23.20
2019-02-15T08:48:23.778Z,23.28
2019-02-15T08:49:23.767Z,23.43
2019-02-15T08:50:23.769Z,23.31
2019-02-15T08:51:23.761Z,23.58
2019-02-15T08:52:23.743Z,23.68
2019-02-15T08:53:23.729Z,23.98
2019-02-15T08:54:23.716Z,24.15
2019-02-15T08:55:23.709Z,24.31
2019-02-15T08:56:23.701Z,24.45
2019-02-15T08:57:23.705Z,24.69
2019-02-15T08:58:23.686Z,24.83
2019-02-15T08:59:23.670Z,25.02
2019-02-15T09:00:23.664Z,25.27
2019-02-15T09:01:23.659Z,24.77
2019-02-15T09:02:23.639Z,24.78
2019-02-15T09:03:23.636Z,25.09
2019-02-15T09:04:23.628Z,25.30
2019-02-15T09:05:23.617Z,25.23
2019-02-15T09:06:23.595Z,25.36
2019-02-15T09:07:23.596Z,25.30
2019-02-15T09:08:23.583Z,24.84
2019-02-15T09:09:23.583Z,24.49
2019-02-15T09:10:23.571Z,24.50
2019-02-15T09:11:23.554Z,24.67
2019-02-15T09:12:23.542Z,24.43
2019-02-15T09:13:23.574Z,24.53
2019-02-15T09:14:23.531Z,24.52
2019-02-15T09:15:23.529Z,24.68
2019-02-15T09:16:23.519Z,24.76
2019-02-15T09:17:23.497Z,24.39
2019-02-15T09:18:23.488Z,24.27
2019-02-15T09:19:23.479Z,24.67
2019-02-15T09:20:23.499Z,24.93
2019-02-15T09:21:23.466Z,24.96
2019-02-15T09:22:23.465Z,24.93
2019-02-15T09:23:23.477Z,24.84
2019-02-15T09:24:23.445Z,24.84
2019-02-15T09:25:23.433Z,24.53
2019-02-15T09:26:23.421Z,24.22
2019-02-15T09:27:23.409Z,24.12
2019-02-15T09:28:23.405Z,24.10
2019-02-15T09:29:23.427Z,24.03
2019-02-15T09:30:23.386Z,24.06
2019-02-15T09:31:23.390Z,24.32
2019-02-15T09:32:23.367Z,24.57
2019-02-15T09:33:23.353Z,24.53
2019-02-15T09:34:23.355Z,24.35
2019-02-15T09:35:23.332Z,24.39
2019-02-15T09:36:23.321Z,24.31
2019-02-15T09:37:23.323Z,24.24
2019-02-15T09:38:23.313Z,24.18
2019-02-15T09:39:23.296Z,24.02
2019-02-15T09:40:23.291Z,23.90
2019-02-15T09:41:23.292Z,23.66
2019-02-15T09:42:23.267Z,23.48
2019-02-15T09:43:23.271Z,22.97
2019-02-15T09:44:23.263Z,23.15
2019-02-15T09:45:23.250Z,22.88
2019-02-15T09:46:23.271Z,23.12
2019-02-15T09:47:23.228Z,22.98
2019-02-15T09:48:23.210Z,22.25
2019-02-15T09:49:24.348Z,21.69
2019-02-15T09:50:23.201Z,21.31
2019-02-15T09:51:23.195Z,21.16
2019-02-15T09:52:23.181Z,21.25
2019-02-15T09:53:23.181Z,21.19
2019-02-15T09:54:23.177Z,20.69
2019-02-15T09:55:23.155Z,20.29
2019-02-15T09:56:23.163Z,20.28
2019-02-15T09:57:23.131Z,19.77
2019-02-15T09:58:23.144Z,19.55
2019-02-15T09:59:23.115Z,19.11
2019-02-15T10:00:23.108Z,18.84
2019-02-15T10:01:23.100Z,18.67
2019-02-15T10:02:23.083Z,18.60
2019-02-15T10:03:23.094Z,18.33
2019-02-15T10:04:23.074Z,18.35
2019-02-15T10:05:23.066Z,18.02
2019-02-15T10:06:23.047Z,17.93
2019-02-15T10:07:23.045Z,17.78
2019-02-15T10:08:23.026Z,17.92
2019-02-15T10:09:23.017Z,17.89
2019-02-15T10:10:23.006Z,17.84
2019-02-15T10:11:22.997Z,17.81
2019-02-15T10:12:22.984Z,17.84
2019-02-15T10:13:22.974Z,18.05
2019-02-15T10:14:22.961Z,18.15
2019-02-15T10:15:22.953Z,18.33
2019-02-15T10:16:28.619Z,18.47
2019-02-15T10:17:23.943Z,18.39
2019-02-15T10:18:22.925Z,18.21
2019-02-15T10:19:22.929Z,18.12
2019-02-15T10:20:22.903Z,18.18
2019-02-15T10:21:22.904Z,18.07
2019-02-15T10:22:22.882Z,18.21
2019-02-15T10:23:22.883Z,18.33
2019-02-15T10:24:22.867Z,18.62
2019-02-15T10:25:22.853Z,18.67
2019-02-15T10:26:22.846Z,18.80
2019-02-15T10:27:22.838Z,18.85
2019-02-15T10:28:22.835Z,18.98
2019-02-15T10:29:22.839Z,18.90
2019-02-15T10:30:22.810Z,18.95
2019-02-15T10:31:22.788Z,18.85
2019-02-15T10:32:22.809Z,18.90
2019-02-15T10:33:22.779Z,18.91
2019-02-15T10:34:22.771Z,18.80
2019-02-15T10:35:22.763Z,18.47
2019-02-15T10:36:22.743Z,18.50
2019-02-15T10:37:22.728Z,18.50
2019-02-15T10:38:22.723Z,18.33
2019-02-15T10:39:22.717Z,18.47
2019-02-15T10:40:22.714Z,18.58
2019-02-15T10:41:22.697Z,18.66
2019-02-15T10:42:22.688Z,18.62
2019-02-15T10:43:22.670Z,18.55
2019-02-15T10:44:22.659Z,18.76
2019-02-15T10:45:22.645Z,18.73
2019-02-15T10:46:22.634Z,18.75
2019-02-15T10:47:25.105Z,18.60
2019-02-15T10:48:22.689Z,18.36
2019-02-15T10:49:22.612Z,18.39
2019-02-15T10:50:22.598Z,18.58
2019-02-15T10:51:22.582Z,18.60
2019-02-15T10:52:22.583Z,18.48
2019-02-15T10:53:22.561Z,18.30
2019-02-15T10:54:22.576Z,18.33
2019-02-15T10:55:22.559Z,18.48
2019-02-15T10:56:22.552Z,17.79
2019-02-15T10:57:22.528Z,17.46
2019-02-15T10:58:22.507Z,17.33
2019-02-15T10:59:22.496Z,17.25
2019-02-15T11:00:22.483Z,17.18
2019-02-15T11:01:22.470Z,16.86
2019-02-15T11:02:22.471Z,17.30
2019-02-15T11:03:22.457Z,17.46
2019-02-15T11:04:22.439Z,17.63
2019-02-15T11:05:22.441Z,17.75
2019-02-15T11:06:22.422Z,17.72
2019-02-15T11:07:22.405Z,17.66
2019-02-15T11:08:22.406Z,18.00
2019-02-15T11:09:22.409Z,17.93
2019-02-15T11:10:22.373Z,18.14
2019-02-15T11:11:22.369Z,18.12
2019-02-15T11:12:22.354Z,18.30
2019-02-15T11:13:22.339Z,18.44
2019-02-15T11:14:22.344Z,18.14
2019-02-15T11:15:22.319Z,17.93
2019-02-15T11:16:22.311Z,17.87
2019-02-15T11:17:22.302Z,17.82
2019-02-15T11:18:22.299Z,17.87
2019-02-15T11:19:22.286Z,18.07
2019-02-15T11:20:22.272Z,18.15
2019-02-15T11:21:22.255Z,18.14
2019-02-15T11:22:22.241Z,18.00
2019-02-15T11:23:22.241Z,17.78
2019-02-15T11:24:22.219Z,17.86
2019-02-15T11:25:22.217Z,17.92
2019-02-15T11:26:24.750Z,17.81
2019-02-15T11:27:22.192Z,17.79
2019-02-15T11:28:22.181Z,17.31
2019-02-15T11:29:22.168Z,17.16
2019-02-15T11:30:22.160Z,16.91
2019-02-15T11:31:22.160Z,16.82
2019-02-15T11:32:22.158Z,16.81
2019-02-15T11:33:22.122Z,16.88
2019-02-15T11:34:22.130Z,17.16
2019-02-15T11:35:22.109Z,17.37
2019-02-15T11:36:22.103Z,17.37
2019-02-15T11:37:22.090Z,17.16
2019-02-15T11:38:22.075Z,17.12
2019-02-15T11:39:22.059Z,17.28
2019-02-15T11:40:22.049Z,17.37
2019-02-15T11:41:22.057Z,17.22
2019-02-15T11:42:22.040Z,17.30
2019-02-15T11:43:22.026Z,17.31
2019-02-15T11:44:22.010Z,17.31
2019-02-15T11:45:21.998Z,17.22
2019-02-15T11:46:21.984Z,17.18
2019-02-15T11:47:21.979Z,17.16
2019-02-15T11:48:21.962Z,17.12
2019-02-15T11:49:21.968Z,17.21
2019-02-15T11:50:21.958Z,17.36
2019-02-15T11:51:21.931Z,17.07
2019-02-15T11:52:21.926Z,16.81
2019-02-15T11:53:21.911Z,16.73
2019-02-15T11:54:23.808Z,16.68
2019-02-15T11:55:21.896Z,16.70
2019-02-15T11:56:21.879Z,16.71
2019-02-15T11:57:21.878Z,16.60
2019-02-15T11:58:21.859Z,16.48
2019-02-15T11:59:21.857Z,16.33
2019-02-15T12:00:23.153Z,16.30
2019-02-15T12:01:21.908Z,16.33
2019-02-15T12:02:22.069Z,16.31
2019-02-15T12:03:21.804Z,16.41
2019-02-15T12:04:21.810Z,16.53
2019-02-15T12:05:21.799Z,16.56
2019-02-15T12:06:21.767Z,16.52
2019-02-15T12:07:21.763Z,16.53
2019-02-15T12:08:21.742Z,16.31
2019-02-15T12:09:21.739Z,16.38
2019-02-15T12:10:21.728Z,16.11
2019-02-15T12:11:21.721Z,15.80
2019-02-15T12:12:21.706Z,15.82
2019-02-15T12:13:21.696Z,15.64
2019-02-15T12:14:21.684Z,15.62
2019-02-15T12:15:21.694Z,15.64
2019-02-15T12:16:21.670Z,15.54
2019-02-15T12:17:21.668Z,15.74
2019-02-15T12:18:21.641Z,15.80
2019-02-15T12:19:21.636Z,15.87
2019-02-15T12:20:21.632Z,16.00
2019-02-15T12:21:21.599Z,16.05
2019-02-15T12:22:21.593Z,16.15
2019-02-15T12:23:21.582Z,16.31
2019-02-15T12:24:21.578Z,16.21
2019-02-15T12:25:21.557Z,16.04
2019-02-15T12:26:21.557Z,16.07
2019-02-15T12:27:21.543Z,16.14
2019-02-15T12:28:21.537Z,16.21
2019-02-15T12:29:21.517Z,16.31
2019-02-15T12:30:21.579Z,16.46
2019-02-15T12:31:21.492Z,16.70
2019-02-15T12:32:21.487Z,16.79
2019-02-15T12:33:21.482Z,16.81
2019-02-15T12:34:21.638Z,16.93
2019-02-15T12:35:21.455Z,17.04
2019-02-15T12:36:21.445Z,16.86
2019-02-15T12:37:21.433Z,16.81
2019-02-15T12:38:21.423Z,16.67
2019-02-15T12:39:21.418Z,16.57
2019-02-15T12:40:21.417Z,16.15
2019-02-15T12:41:21.395Z,15.87
2019-02-15T12:42:21.381Z,15.74
2019-02-15T12:43:21.383Z,15.71
2019-02-15T12:44:21.363Z,15.57
2019-02-15T12:45:21.362Z,15.43
2019-02-15T12:46:21.379Z,15.31
2019-02-15T12:47:21.325Z,15.23
2019-02-15T12:48:21.320Z,15.23
2019-02-15T12:49:21.303Z,15.41
2019-02-15T12:50:21.302Z,15.43
2019-02-15T12:51:21.280Z,15.43
2019-02-15T12:52:21.269Z,15.43
2019-02-15T12:53:21.266Z,15.29
2019-02-15T12:54:21.246Z,15.23
2019-02-15T12:55:21.232Z,15.19
2019-02-15T12:56:21.231Z,15.19
2019-02-15T12:57:21.213Z,15.23
2019-02-15T12:58:21.209Z,15.13
2019-02-15T12:59:21.199Z,15.17
2019-02-15T13:00:21.196Z,15.19
2019-02-15T13:01:21.177Z,15.20
2019-02-15T13:02:21.169Z,15.19
2019-02-15T13:03:21.210Z,15.23
2019-02-15T13:04:21.137Z,15.25
2019-02-15T13:05:21.125Z,15.16
2019-02-15T13:06:28.444Z,15.10
2019-02-15T13:07:22.107Z,14.92